Time;durP1;ratioP1;P1;durP2;ratioP2;P2;SDS_P1;SDS_P2;PMS_P1;PMS_P2;Temp;Humidity;BMP_temperature;BMP_pressure;BME280_temperature;BME280_humidity;BME280_pressure;Samples;Min_cycle;Max_cycle;Signal;HPM_P1;HPM_P2
2023/01/11 00:01:52;;;;;;;10.13;6.47;;;2.90;99.90;2.40;100499;;;;586710;237;24077;-83
2023/01/11 00:04:19;;;;;;;12.40;6.13;;;3.00;99.90;2.40;100499;;;;587288;241;24061;-85
2023/01/11 00:06:47;;;;;;;15.37;7.07;;;3.00;99.90;2.40;100497;;;;595343;241;24077;-86
2023/01/11 00:09:16;;;;;;;12.97;8.00;;;3.00;99.90;2.40;100492;;;;585034;241;24074;-86
2023/01/11 00:11:43;;;;;;;9.53;5.80;;;3.00;99.90;2.50;100494;;;;584974;241;25111;-86
2023/01/11 00:14:14;;;;;;;11.97;6.00;;;3.10;99.90;2.60;100504;;;;585161;241;24094;-85
2023/01/11 00:16:39;;;;;;;10.33;6.20;;;3.20;99.90;2.60;100493;;;;585985;241;24124;-84
2023/01/11 00:19:11;;;;;;;16.27;6.00;;;3.20;99.90;2.70;100502;;;;584349;241;24065;-84
2023/01/11 00:21:35;;;;;;;12.60;6.10;;;3.30;99.90;2.70;100496;;;;594454;241;24079;-82
2023/01/11 00:24:03;;;;;;;10.03;5.93;;;3.30;99.90;2.70;100494;;;;584806;242;24098;-85
2023/01/11 00:26:31;;;;;;;11.87;5.77;;;3.30;99.90;2.70;100488;;;;593185;242;24074;-85
2023/01/11 00:28:59;;;;;;;9.30;6.20;;;3.30;99.90;2.60;100489;;;;584863;242;24041;-85
2023/01/11 00:31:31;;;;;;;17.53;6.50;;;3.20;99.90;2.50;100489;;;;595259;237;24057;-85
2023/01/11 00:33:55;;;;;;;14.80;7.00;;;3.20;99.90;2.50;100473;;;;585444;241;24078;-85
2023/01/11 00:36:23;;;;;;;11.10;5.93;;;3.10;99.90;2.50;100481;;;;586289;242;25093;-85
2023/01/11 00:38:52;;;;;;;9.73;5.60;;;3.10;99.90;2.40;100475;;;;595472;236;24060;-85
2023/01/11 00:49:39;;;;;;;14.73;10.27;;;2.70;99.90;2.00;100487;;;;596169;241;24076;-84
2023/01/11 00:52:10;;;;;;;17.20;10.60;;;2.70;99.90;2.00;100490;;;;594471;241;24116;-84
2023/01/11 00:54:38;;;;;;;20.00;11.83;;;2.60;99.90;1.90;100497;;;;584567;242;24091;-84
2023/01/11 00:57:06;;;;;;;17.90;10.57;;;2.60;99.90;1.90;100487;;;;584905;242;24060;-83
2023/01/11 00:59:31;;;;;;;18.37;11.10;;;2.50;99.90;1.80;100482;;;;596033;236;24095;-86
2023/01/11 01:01:59;;;;;;;17.20;11.00;;;2.50;99.90;1.80;100488;;;;586403;241;24061;-85
2023/01/11 01:04:30;;;;;;;16.43;10.67;;;2.40;99.90;1.70;100489;;;;597033;241;24071;-84
2023/01/11 01:06:59;;;;;;;16.57;11.27;;;2.30;99.90;1.70;100494;;;;585279;241;24090;-85
2023/01/11 01:09:28;;;;;;;19.87;11.87;;;2.20;99.90;1.60;100500;;;;595377;237;24094;-85
2023/01/11 01:11:57;;;;;;;18.93;11.57;;;2.20;99.90;1.60;100497;;;;582980;246;24095;-85
2023/01/11 01:14:28;;;;;;;18.23;12.13;;;2.20;99.90;1.60;100488;;;;574788;246;24107;-85
2023/01/11 01:16:55;;;;;;;20.27;12.57;;;2.20;99.90;1.60;100493;;;;584621;246;24121;-85
2023/01/11 01:19:27;;;;;;;22.57;12.77;;;2.20;99.90;1.60;100491;;;;574577;246;24101;-85
2023/01/11 01:21:51;;;;;;;22.57;12.60;;;2.20;99.90;1.70;100494;;;;574843;242;24119;-84
2023/01/11 01:24:23;;;;;;;24.83;15.67;;;2.20;99.90;1.70;100493;;;;574145;246;24087;-85
2023/01/11 01:26:47;;;;;;;22.33;14.80;;;2.30;99.90;1.70;100490;;;;574951;246;24126;-87
2023/01/11 01:29:19;;;;;;;23.63;14.40;;;2.30;99.90;1.70;100501;;;;573895;246;24090;-84
2023/01/11 01:31:44;;;;;;;25.37;15.57;;;2.30;99.90;1.80;100493;;;;573360;246;24088;-85
2023/01/11 01:34:12;;;;;;;28.83;15.70;;;2.40;99.90;1.80;100497;;;;584523;246;24098;-85
2023/01/11 01:36:39;;;;;;;31.77;16.43;;;2.40;99.90;1.90;100499;;;;573812;246;24072;-85
2023/01/11 01:39:07;;;;;;;28.90;15.73;;;2.50;99.90;2.00;100494;;;;575710;246;24107;-85
2023/01/11 01:41:35;;;;;;;26.80;14.60;;;2.60;99.90;2.00;100495;;;;575641;246;24101;-86
2023/01/11 01:44:07;;;;;;;29.47;14.07;;;2.70;99.90;2.10;100493;;;;575619;245;25135;-86
2023/01/11 01:46:36;;;;;;;25.43;14.87;;;2.70;99.90;2.20;100483;;;;575155;246;24096;-85
2023/01/11 01:49:03;;;;;;;24.13;13.97;;;2.80;99.90;2.20;100479;;;;575328;246;24102;-84
2023/01/11 01:51:41;;;;;;;24.17;13.17;;;2.90;99.90;2.30;100480;;;;575273;246;24102;-83
2023/01/11 01:54:09;;;;;;;23.35;12.90;;;2.90;99.90;2.30;100483;;;;579249;246;35303;-84
2023/01/11 01:56:36;;;;;;;19.97;9.43;;;2.90;99.90;2.40;100479;;;;574437;246;24161;-84
2023/01/11 01:59:06;;;;;;;20.17;9.40;;;3.00;99.90;2.40;100474;;;;575226;246;24110;-85
2023/01/11 02:01:47;;;;;;;20.53;9.50;;;3.00;99.90;2.40;100472;;;;575542;246;24125;-85
2023/01/11 02:04:42;;;;;;;19.13;9.70;;;3.10;99.90;2.50;100466;;;;582943;246;25132;-84
2023/01/11 02:07:13;;;;;;;20.13;9.53;;;3.10;99.90;2.50;100479;;;;584996;246;24086;-83
2023/01/11 02:09:52;;;;;;;22.27;9.60;;;3.10;99.90;2.50;100476;;;;573638;247;24099;-85
2023/01/11 02:12:23;;;;;;;16.30;9.53;;;3.10;99.90;2.50;100472;;;;575208;246;24115;-84
2023/01/11 02:14:49;;;;;;;25.85;13.82;;;3.20;99.90;2.50;100473;;;;568181;246;35303;-84
2023/01/11 02:17:17;;;;;;;16.67;9.87;;;3.10;99.90;2.60;100463;;;;595873;238;24039;-84
2023/01/11 02:19:50;;;;;;;16.33;9.00;;;3.20;99.90;2.50;100462;;;;592630;238;24127;-84
2023/01/11 02:22:43;;;;;;;13.60;8.60;;;3.20;99.90;2.50;100471;;;;594906;238;24032;-84
2023/01/11 02:25:38;;;;;;;22.10;10.40;;;3.10;99.90;2.50;100460;;;;595651;238;24026;-85
2023/01/11 02:28:37;;;;;;;19.50;9.73;;;3.10;99.90;2.40;100452;;;;594973;238;25381;-84
2023/01/11 02:31:09;;;;;;;24.30;10.70;;;3.00;99.90;2.30;100449;;;;574516;240;24106;-85
2023/01/11 02:33:55;;;;;;;23.10;10.93;;;2.90;99.90;2.30;100444;;;;591318;238;24033;-84
2023/01/11 02:36:45;;;;;;;20.03;10.67;;;2.90;99.90;2.20;100444;;;;595365;238;24074;-84
2023/01/11 02:39:29;;;;;;;30.98;15.85;;;2.80;99.90;2.20;100436;;;;590116;238;34983;-83
2023/01/11 02:45:02;;;;;;;21.97;11.57;;;2.80;99.90;2.20;100424;;;;594872;238;24094;-83
2023/01/11 02:47:48;;;;;;;23.20;11.37;;;2.80;99.90;2.20;100425;;;;595113;238;24018;-84
2023/01/11 02:50:18;;;;;;;26.70;11.47;;;2.80;99.90;2.20;100426;;;;594566;238;24026;-83
2023/01/11 02:52:52;;;;;;;33.60;13.67;;;2.80;99.90;2.20;100423;;;;593970;238;24061;-84
2023/01/11 02:55:20;;;;;;;26.70;13.30;;;2.80;99.90;2.10;100416;;;;587991;238;24050;-83
2023/01/11 02:57:50;;;;;;;29.13;12.33;;;2.80;99.90;2.10;100428;;;;593952;238;24046;-83
2023/01/11 03:00:15;;;;;;;37.27;13.20;;;2.70;99.90;2.10;100426;;;;603338;238;24049;-85
2023/01/11 03:02:43;;;;;;;32.73;14.27;;;2.70;99.90;2.00;100412;;;;592897;238;24037;-85
2023/01/11 03:05:15;;;;;;;33.53;16.43;;;2.60;99.90;1.90;100406;;;;591516;238;25064;-84
2023/01/11 03:07:54;;;;;;;36.93;19.23;;;2.50;99.90;1.90;100404;;;;591055;238;24074;-83
2023/01/11 03:10:46;;;;;;;38.30;20.27;;;2.50;99.90;1.80;100405;;;;593608;238;24055;-84
2023/01/11 03:13:48;;;;;;;36.73;19.43;;;2.30;99.90;1.70;100399;;;;594138;238;24056;-84
2023/01/11 03:16:27;;;;;;;41.23;21.37;;;2.30;99.90;1.60;100397;;;;604835;233;24007;-84
2023/01/11 03:19:19;;;;;;;37.67;19.37;;;2.20;99.90;1.60;100404;;;;595710;237;24047;-83
2023/01/11 03:21:50;;;;;;;38.60;20.23;;;2.20;99.90;1.50;100387;;;;593827;236;24050;-84
2023/01/11 03:24:20;;;;;;;32.53;19.50;;;2.10;99.90;1.50;100383;;;;593173;238;24047;-85
2023/01/11 03:27:21;;;;;;;32.53;18.17;;;2.10;99.90;1.40;100383;;;;595704;238;24044;-83
2023/01/11 03:30:00;;;;;;;29.90;17.10;;;2.10;99.90;1.50;100369;;;;595289;238;24052;-85
2023/01/11 03:32:34;;;;;;;29.33;17.17;;;2.10;99.90;1.40;100379;;;;594338;238;24053;-84
2023/01/11 03:35:16;;;;;;;30.93;17.17;;;2.10;99.90;1.40;100362;;;;593069;238;24043;-84
2023/01/11 03:37:47;;;;;;;29.90;15.87;;;2.00;99.90;1.40;100361;;;;595322;238;24043;-84
2023/01/11 03:40:18;;;;;;;32.20;18.30;;;2.00;99.90;1.40;100358;;;;595116;238;24046;-84
2023/01/11 03:45:32;;;;;;;31.33;17.67;;;2.00;99.90;1.50;100359;;;;595339;238;24038;-83
2023/01/11 03:48:04;;;;;;;36.83;17.33;;;2.10;99.90;1.50;100347;;;;593088;238;24028;-83
2023/01/11 03:50:29;;;;;;;31.23;16.77;;;2.10;99.90;1.50;100342;;;;593989;238;24074;-85
2023/01/11 03:52:56;;;;;;;28.23;16.47;;;2.10;99.90;1.40;100331;;;;595477;238;24032;-85
2023/01/11 03:55:28;;;;;;;30.67;16.33;;;2.00;99.90;1.40;100326;;;;592861;238;24034;-84
2023/01/11 03:57:53;;;;;;;30.43;16.13;;;2.00;99.90;1.30;100322;;;;595053;238;24078;-84
2023/01/11 04:00:21;;;;;;;29.83;16.47;;;2.00;99.90;1.30;100318;;;;595653;238;24069;-85
2023/01/11 04:02:52;;;;;;;27.20;16.33;;;1.90;99.90;1.20;100317;;;;593969;238;24121;-84
2023/01/11 04:05:17;;;;;;;28.17;15.97;;;1.90;99.90;1.20;100316;;;;602857;238;24038;-83
2023/01/11 04:07:45;;;;;;;30.23;16.17;;;1.80;99.90;1.20;100311;;;;591828;238;24050;-85
2023/01/11 04:10:13;;;;;;;26.37;15.33;;;1.90;99.90;1.30;100295;;;;592001;238;24027;-85
2023/01/11 04:12:41;;;;;;;33.50;17.43;;;1.90;99.90;1.40;100304;;;;604585;238;24037;-84
2023/01/11 04:15:09;;;;;;;32.43;16.17;;;2.00;99.90;1.40;100300;;;;591155;238;24023;-85
2023/01/11 04:17:37;;;;;;;25.33;16.17;;;2.00;99.90;1.40;100297;;;;603595;238;24065;-86
2023/01/11 04:20:06;;;;;;;29.80;16.30;;;2.00;99.90;1.40;100288;;;;591318;238;24025;-86
2023/01/11 04:22:33;;;;;;;29.83;16.97;;;2.00;99.90;1.40;100277;;;;604143;238;24027;-85
2023/01/11 04:25:01;;;;;;;31.43;18.00;;;2.00;99.90;1.30;100277;;;;590789;238;24034;-86
2023/01/11 04:27:29;;;;;;;33.07;18.07;;;2.00;99.90;1.30;100276;;;;591488;238;24041;-84
2023/01/11 04:29:57;;;;;;;32.27;19.07;;;2.00;99.90;1.30;100271;;;;591381;238;24048;-85
2023/01/11 04:32:25;;;;;;;31.03;17.53;;;1.90;99.90;1.20;100276;;;;590749;238;25113;-85
2023/01/11 04:34:54;;;;;;;29.10;17.53;;;1.90;99.90;1.30;100277;;;;605305;236;24200;-85
2023/01/11 04:37:22;;;;;;;37.57;20.33;;;1.80;99.90;1.20;100272;;;;592527;238;24047;-85
2023/01/11 04:39:50;;;;;;;36.47;19.10;;;1.90;99.90;1.20;100273;;;;591822;238;24048;-85
2023/01/11 04:42:17;;;;;;;40.43;19.73;;;1.90;99.90;1.20;100264;;;;592091;238;24051;-85
2023/01/11 04:44:49;;;;;;;35.53;19.33;;;1.80;99.90;1.20;100263;;;;592372;238;24077;-83
2023/01/11 04:47:13;;;;;;;33.27;18.90;;;1.80;99.90;1.20;100251;;;;594898;238;24032;-85
2023/01/11 04:49:42;;;;;;;30.67;18.50;;;1.80;99.90;1.20;100262;;;;592861;238;24038;-85
2023/01/11 04:52:11;;;;;;;32.83;17.40;;;1.90;99.90;1.30;100258;;;;595415;238;25082;-84
2023/01/11 04:54:41;;;;;;;29.37;18.53;;;1.80;99.90;1.20;100256;;;;594680;238;24031;-85
2023/01/11 04:57:09;;;;;;;30.73;18.03;;;1.90;99.90;1.20;100262;;;;594467;238;24041;-85
2023/01/11 04:59:39;;;;;;;31.83;18.07;;;1.80;99.90;1.20;100257;;;;600102;238;24053;-84
2023/01/11 05:02:02;;;;;;;31.97;18.70;;;1.80;99.90;1.20;100253;;;;591253;238;24038;-85
2023/01/11 05:04:30;;;;;;;31.97;18.67;;;1.80;99.90;1.20;100245;;;;591490;238;24065;-86
2023/01/11 05:06:58;;;;;;;32.33;17.30;;;1.90;99.90;1.20;100233;;;;592106;238;24054;-85
2023/01/11 05:09:26;;;;;;;36.87;19.57;;;1.80;99.90;1.20;100241;;;;591374;238;24033;-85
2023/01/11 05:11:54;;;;;;;32.77;17.80;;;1.80;99.90;1.10;100242;;;;590920;238;24024;-84
2023/01/11 05:14:25;;;;;;;39.80;19.43;;;1.80;99.90;1.10;100236;;;;591958;238;24065;-85
2023/01/11 05:16:50;;;;;;;33.23;17.27;;;1.80;99.90;1.10;100236;;;;594703;241;24068;-85
2023/01/11 05:19:19;;;;;;;35.43;17.90;;;1.80;99.90;1.10;100233;;;;574634;246;24094;-86
2023/01/11 05:21:47;;;;;;;30.20;18.10;;;1.70;99.90;1.10;100227;;;;584205;246;24118;-85
2023/01/11 05:24:15;;;;;;;34.33;18.27;;;1.70;99.90;1.10;100225;;;;575192;246;24158;-84
2023/01/11 05:26:43;;;;;;;33.27;19.07;;;1.80;99.90;1.10;100220;;;;574057;246;24080;-85
2023/01/11 05:29:11;;;;;;;33.47;18.50;;;1.80;99.90;1.10;100225;;;;584088;246;24103;-85
2023/01/11 05:31:43;;;;;;;42.53;18.80;;;1.80;99.90;1.10;100215;;;;583716;246;24115;-84
2023/01/11 05:34:11;;;;;;;32.60;19.03;;;1.80;99.90;1.20;100211;;;;573474;246;24096;-84
2023/01/11 05:36:37;;;;;;;35.20;19.07;;;1.80;99.90;1.20;100221;;;;575670;246;24127;-85
2023/01/11 05:39:05;;;;;;;27.23;13.62;;;1.80;99.90;1.20;100219;;;;581929;242;35212;-84
2023/01/11 05:41:40;;;;;;;20.43;10.20;;;1.80;99.90;1.20;100221;;;;587121;242;24050;-85
2023/01/11 05:46:50;;;;;;;16.87;9.00;;;1.90;99.90;1.20;100202;;;;597128;239;24075;-84
2023/01/11 05:49:18;;;;;;;22.43;13.50;;;1.90;99.90;1.20;100199;;;;586704;241;24049;-83
2023/01/11 05:51:46;;;;;;;30.03;15.33;;;1.80;99.90;1.20;100197;;;;586309;241;24054;-84
2023/01/11 05:54:17;;;;;;;27.60;16.97;;;1.90;99.90;1.20;100190;;;;585668;241;24044;-85
2023/01/11 05:56:42;;;;;;;30.73;16.23;;;1.80;99.90;1.20;100184;;;;584899;241;24060;-85
2023/01/11 05:59:10;;;;;;;31.67;16.23;;;1.80;99.90;1.20;100181;;;;596609;241;24054;-84
2023/01/11 06:01:41;;;;;;;29.60;15.93;;;1.80;99.90;1.20;100181;;;;596451;241;24053;-85
2023/01/11 06:04:10;;;;;;;31.17;17.40;;;1.80;99.90;1.20;100167;;;;589561;236;35187;-85
2023/01/11 06:06:34;;;;;;;20.77;9.70;;;1.80;99.90;1.20;100171;;;;584578;241;24066;-85
2023/01/11 06:09:02;;;;;;;15.30;7.70;;;1.80;99.90;1.10;100156;;;;585061;241;25139;-84
2023/01/11 06:11:30;;;;;;;19.93;9.50;;;1.80;99.90;1.10;100161;;;;595240;237;24053;-85
2023/01/11 06:13:58;;;;;;;22.57;14.07;;;1.80;99.90;1.10;100147;;;;585105;241;24075;-85
2023/01/11 06:16:27;;;;;;;27.00;15.83;;;1.80;99.90;1.10;100153;;;;584519;241;24063;-85
2023/01/11 06:18:55;;;;;;;24.73;15.43;;;1.80;99.90;1.10;100153;;;;595902;241;24073;-84
2023/01/11 06:21:23;;;;;;;23.30;15.17;;;1.80;99.90;1.10;100144;;;;584247;242;24065;-85
2023/01/11 06:23:51;;;;;;;27.47;15.83;;;1.80;99.90;1.10;100141;;;;584679;242;24078;-83
2023/01/11 06:26:22;;;;;;;27.27;14.70;;;1.80;99.90;1.10;100153;;;;584729;242;24049;-85
2023/01/11 06:28:47;;;;;;;24.27;13.83;;;1.80;99.90;1.10;100147;;;;584258;242;24091;-85
2023/01/11 06:31:15;;;;;;;25.87;14.67;;;1.80;99.90;1.20;100150;;;;584237;242;24069;-85
2023/01/11 06:33:43;;;;;;;19.73;13.93;;;1.80;99.90;1.30;100147;;;;586357;242;24061;-84
2023/01/11 06:36:11;;;;;;;24.77;15.47;;;1.90;99.90;1.30;100154;;;;584440;242;24053;-84
2023/01/11 06:38:43;;;;;;;23.07;14.63;;;2.00;99.90;1.30;100154;;;;585056;241;24078;-85
2023/01/11 06:41:09;;;;;;;27.37;14.40;;;2.00;99.90;1.40;100145;;;;585995;242;24064;-85
2023/01/11 06:43:39;;;;;;;20.93;13.20;;;2.00;99.90;1.40;100153;;;;585994;241;24120;-85
2023/01/11 06:46:08;;;;;;;19.87;13.80;;;2.00;99.90;1.50;100145;;;;586152;241;24087;-85
2023/01/11 06:48:32;;;;;;;21.53;13.20;;;2.10;99.90;1.60;100140;;;;586478;240;24222;-85
2023/01/11 06:51:00;;;;;;;23.57;12.57;;;2.20;99.90;1.60;100136;;;;585165;242;24060;-84
2023/01/11 06:53:31;;;;;;;20.23;12.73;;;2.30;99.90;1.70;100133;;;;585148;242;24049;-84
2023/01/11 06:56:01;;;;;;;17.03;12.13;;;2.50;99.90;1.80;100131;;;;585931;242;24097;-86
2023/01/11 06:58:28;;;;;;;20.50;10.20;;;2.40;99.90;1.90;100134;;;;587075;241;25094;-86
2023/01/11 07:00:56;;;;;;;18.43;10.07;;;2.50;99.90;2.00;100128;;;;585706;241;24094;-85
2023/01/11 07:03:24;;;;;;;17.80;8.13;;;2.70;99.90;2.10;100124;;;;585475;241;24083;-85
2023/01/11 07:05:49;;;;;;;14.43;7.97;;;2.70;99.90;2.10;100125;;;;585172;241;24073;-87
2023/01/11 07:08:21;;;;;;;10.13;6.90;;;2.70;99.90;2.10;100113;;;;594164;241;24063;-87
2023/01/11 07:10:48;;;;;;;20.23;10.37;;;2.80;99.90;2.20;100128;;;;594775;240;24064;-85
2023/01/11 07:13:17;;;;;;;7.97;5.10;;;2.80;99.90;2.30;100120;;;;586236;241;24130;-85
2023/01/11 07:15:42;;;;;;;21.50;11.17;;;2.90;99.90;2.30;100129;;;;578644;247;24105;-85
2023/01/11 07:18:13;;;;;;;13.50;5.57;;;2.90;99.90;2.40;100129;;;;585918;241;24080;-84
2023/01/11 07:20:38;;;;;;;14.20;7.90;;;3.00;99.90;2.50;100127;;;;584126;246;24144;-84
2023/01/11 07:23:10;;;;;;;10.53;5.67;;;3.10;99.90;2.60;100129;;;;595227;241;24068;-85
2023/01/11 07:25:38;;;;;;;14.30;6.97;;;3.20;99.90;2.70;100130;;;;583606;243;24080;-85
2023/01/11 07:28:08;;;;;;;14.03;6.20;;;3.30;99.90;2.80;100128;;;;575629;246;24176;-85
2023/01/11 07:30:32;;;;;;;11.43;6.50;;;3.40;99.90;2.90;100139;;;;586381;242;24077;-85
2023/01/11 07:33:04;;;;;;;10.90;6.93;;;3.50;99.90;3.00;100131;;;;575265;246;24083;-85
2023/01/11 07:35:29;;;;;;;8.10;5.97;;;3.70;99.90;3.10;100130;;;;573731;247;24091;-84
2023/01/11 07:37:57;;;;;;;12.70;7.20;;;3.70;99.90;3.20;100135;;;;589623;238;23965;-85
2023/01/11 07:40:25;;;;;;;11.93;7.20;;;3.80;99.90;3.30;100133;;;;595961;236;24052;-84
2023/01/11 07:43:13;;;;;;;12.80;6.23;;;3.90;99.90;3.30;100130;;;;574148;246;24164;-84
2023/01/11 07:45:46;;;;;;;12.93;7.00;;;4.00;99.90;3.40;100131;;;;575664;246;24153;-84
2023/01/11 07:48:13;;;;;;;11.40;6.20;;;4.10;99.90;3.50;100121;;;;575228;246;24094;-85
2023/01/11 07:50:45;;;;;;;8.30;5.73;;;4.10;99.90;3.50;100129;;;;583568;246;24123;-85
2023/01/11 07:53:10;;;;;;;13.93;5.90;;;4.10;99.90;3.60;100117;;;;579457;247;24101;-84
2023/01/11 07:55:38;;;;;;;7.13;4.90;;;4.20;99.90;3.60;100110;;;;583099;246;24207;-84
2023/01/11 07:58:06;;;;;;;8.97;5.90;;;4.20;99.90;3.70;100111;;;;575321;246;24211;-84
2023/01/11 08:00:33;;;;;;;8.80;4.97;;;4.30;99.90;3.70;100116;;;;584562;246;24102;-84
2023/01/11 08:03:05;;;;;;;11.13;5.87;;;4.30;99.90;3.70;100094;;;;585809;242;24050;-85
2023/01/11 08:05:29;;;;;;;12.83;5.60;;;4.30;99.90;3.70;100099;;;;585312;242;24082;-85
2023/01/11 08:07:57;;;;;;;12.50;4.70;;;4.40;99.90;3.80;100096;;;;595368;241;24090;-84
2023/01/11 08:10:28;;;;;;;8.33;5.03;;;4.40;99.90;3.80;100104;;;;585800;241;24115;-85
2023/01/11 08:15:42;;;;;;;11.53;6.17;;;4.40;99.90;3.80;100099;;;;595841;241;24054;-85
2023/01/11 08:18:10;;;;;;;15.70;4.90;;;4.40;99.90;3.70;100089;;;;585760;241;24067;-84
2023/01/11 08:20:41;;;;;;;14.77;5.00;;;4.40;99.90;3.70;100082;;;;585499;241;24060;-85
2023/01/11 08:23:09;;;;;;;5.27;4.23;;;4.30;99.90;3.70;100095;;;;592744;241;24096;-85
2023/01/11 08:25:34;;;;;;;10.97;6.70;;;4.30;99.90;3.70;100088;;;;595693;241;24102;-84
2023/01/11 08:28:02;;;;;;;13.77;5.50;;;4.30;99.90;3.70;100092;;;;587080;241;24045;-85
2023/01/11 08:30:34;;;;;;;14.37;6.50;;;4.30;99.90;3.70;100089;;;;594065;241;24071;-84
2023/01/11 08:32:58;;;;;;;12.63;6.70;;;4.30;99.90;3.70;100094;;;;586133;241;24066;-84
2023/01/11 08:35:27;;;;;;;9.83;5.80;;;4.30;99.90;3.80;100090;;;;585759;241;24075;-85
2023/01/11 08:37:55;;;;;;;9.70;5.33;;;4.30;99.90;3.80;100090;;;;585400;241;24104;-84
2023/01/11 08:40:24;;;;;;;9.93;6.23;;;4.40;99.90;3.80;100084;;;;593517;241;24092;-84
2023/01/11 08:42:56;;;;;;;8.33;5.40;;;4.40;99.90;3.80;100087;;;;587030;241;24068;-85
2023/01/11 08:45:24;;;;;;;16.00;6.23;;;4.40;99.90;3.90;100100;;;;584641;242;24088;-84
2023/01/11 08:47:55;;;;;;;6.27;4.77;;;4.40;99.90;3.90;100096;;;;584830;242;25103;-84
2023/01/11 08:50:21;;;;;;;11.33;6.03;;;4.40;99.90;3.80;100088;;;;585825;242;24102;-86
2023/01/11 08:52:49;;;;;;;23.70;8.67;;;4.40;99.90;3.90;100087;;;;592716;242;24089;-83
2023/01/11 08:55:17;;;;;;;8.07;5.50;;;4.40;99.90;3.90;100088;;;;584142;242;24087;-84
2023/01/11 08:57:44;;;;;;;13.30;5.77;;;4.50;99.90;3.90;100094;;;;584660;242;24072;-84
2023/01/11 09:00:16;;;;;;;12.20;6.80;;;4.50;99.90;4.00;100097;;;;584859;242;24068;-84
2023/01/11 09:02:44;;;;;;;7.13;3.77;;;4.50;99.90;4.00;100085;;;;594518;237;24073;-84
2023/01/11 09:05:09;;;;;;;12.17;6.53;;;4.60;99.90;4.00;100094;;;;585779;242;24115;-84
2023/01/11 09:07:37;;;;;;;11.17;6.23;;;4.60;99.90;4.10;100087;;;;595587;241;24062;-85
2023/01/11 09:10:06;;;;;;;12.77;6.03;;;4.70;99.90;4.10;100083;;;;584213;242;24065;-84
2023/01/11 09:12:34;;;;;;;8.60;4.63;;;4.70;99.90;4.20;100086;;;;585502;242;24050;-84
2023/01/11 09:15:04;;;;;;;9.47;5.97;;;4.70;99.90;4.20;100079;;;;593318;242;24091;-83
2023/01/11 09:17:30;;;;;;;7.33;5.17;;;4.80;99.90;4.20;100075;;;;586371;241;24065;-85
2023/01/11 09:19:57;;;;;;;13.20;5.87;;;4.80;99.90;4.30;100083;;;;585133;239;24096;-85
2023/01/11 09:22:26;;;;;;;9.30;5.10;;;4.80;99.90;4.30;100073;;;;585801;241;24064;-83
2023/01/11 09:24:54;;;;;;;11.53;6.20;;;4.90;99.90;4.40;100065;;;;585457;241;24070;-84
2023/01/11 09:27:25;;;;;;;7.63;5.37;;;5.00;99.90;4.40;100061;;;;585730;241;24052;-84
2023/01/11 09:29:50;;;;;;;11.37;5.10;;;5.00;99.90;4.50;100062;;;;586614;241;24072;-84
2023/01/11 09:32:18;;;;;;;11.03;5.10;;;5.00;99.90;4.50;100049;;;;585990;241;24065;-84
2023/01/11 09:34:48;;;;;;;9.10;4.53;;;5.10;99.90;4.60;100057;;;;585590;241;24047;-83
2023/01/11 09:37:17;;;;;;;8.00;4.60;;;5.20;99.90;4.60;100044;;;;585946;241;24064;-83
2023/01/11 09:39:45;;;;;;;10.60;4.87;;;5.20;99.90;4.60;100040;;;;593797;241;24056;-83
2023/01/11 09:42:39;;;;;;;4.30;3.83;;;5.20;99.90;4.60;100037;;;;584959;241;24076;-83
2023/01/11 09:45:22;;;;;;;7.37;4.20;;;5.20;99.90;4.70;100039;;;;595846;241;24077;-82
2023/01/11 09:48:11;;;;;;;12.00;6.87;;;5.30;99.90;4.70;100038;;;;579607;241;35191;-84
2023/01/11 09:50:38;;;;;;;9.63;6.13;;;5.30;99.90;4.80;100029;;;;587402;241;24068;-84
2023/01/11 09:53:07;;;;;;;11.33;3.83;;;5.30;99.90;4.80;100033;;;;586610;241;24065;-83
2023/01/11 09:55:41;;;;;;;10.90;5.20;;;5.40;99.90;4.90;100018;;;;585453;237;24068;-83
2023/01/11 09:58:36;;;;;;;7.53;5.23;;;5.50;99.90;5.10;100027;;;;586049;242;24104;-83
2023/01/11 10:01:37;;;;;;;6.30;3.47;;;5.60;99.90;5.20;100008;;;;593454;242;24056;-84
2023/01/11 10:04:16;;;;;;;11.00;4.40;;;5.80;99.90;5.40;100016;;;;584244;240;24072;-84
2023/01/11 10:07:15;;;;;;;8.13;4.83;;;5.90;99.90;5.60;100016;;;;586307;242;24053;-84
2023/01/11 10:09:50;;;;;;;8.03;4.27;;;6.10;99.90;5.70;100004;;;;586857;242;24051;-84
2023/01/11 10:12:59;;;;;;;6.67;3.73;;;6.30;99.90;5.80;99981;;;;586098;242;24054;-85
2023/01/11 10:15:31;;;;;;;8.67;4.63;;;6.40;99.90;5.80;99981;;;;585863;242;24061;-83
2023/01/11 10:18:03;;;;;;;6.80;4.43;;;6.40;99.90;5.80;99978;;;;585095;241;24111;-84
2023/01/11 10:20:34;;;;;;;11.93;4.77;;;6.40;99.90;5.70;99971;;;;586295;242;24067;-84
2023/01/11 10:23:31;;;;;;;9.87;3.70;;;6.30;99.90;5.70;99976;;;;585483;242;24069;-85
2023/01/11 10:26:06;;;;;;;10.23;4.20;;;6.30;99.90;5.70;99971;;;;587599;240;24108;-83
2023/01/11 10:28:44;;;;;;;6.37;3.90;;;6.20;99.90;5.60;99955;;;;594760;241;24110;-83
2023/01/11 10:31:27;;;;;;;5.97;4.43;;;6.20;99.90;5.60;99974;;;;586680;242;24061;-83
2023/01/11 10:42:20;;;;;;;6.13;3.97;;;6.10;99.90;5.70;99969;;;;586731;241;24096;-85
2023/01/11 10:45:19;;;;;;;8.63;4.40;;;6.20;99.90;5.70;99955;;;;586765;241;24066;-84
2023/01/11 10:48:00;;;;;;;5.43;4.10;;;6.30;99.90;5.80;99949;;;;574377;246;24084;-84
2023/01/11 10:50:41;;;;;;;10.50;3.80;;;6.30;99.90;5.80;99955;;;;585770;243;24038;-85
2023/01/11 10:53:18;;;;;;;6.33;4.07;;;6.30;99.90;5.80;99941;;;;595909;238;24062;-83
2023/01/11 10:55:57;;;;;;;8.30;4.50;;;6.30;99.90;5.70;99951;;;;595009;238;24042;-84
2023/01/11 10:59:12;;;;;;;7.07;4.00;;;6.30;99.90;5.70;99944;;;;592415;238;24041;-85
2023/01/11 11:02:02;;;;;;;9.07;4.30;;;6.30;99.90;5.70;99946;;;;594807;238;24035;-83
2023/01/11 11:04:50;;;;;;;7.83;4.70;;;6.30;99.90;5.80;99934;;;;594914;238;24055;-85
2023/01/11 11:07:33;;;;;;;6.50;3.77;;;6.30;99.90;5.80;99922;;;;594907;236;24052;-84
2023/01/11 11:10:07;;;;;;;6.60;4.20;;;6.30;99.90;5.80;99924;;;;601743;238;24041;-84
2023/01/11 11:12:39;;;;;;;5.10;3.10;;;6.30;99.90;5.70;99915;;;;594437;238;24102;-83
2023/01/11 11:15:27;;;;;;;14.33;4.80;;;6.30;99.90;5.70;99920;;;;591963;238;24073;-84
2023/01/11 11:17:58;;;;;;;5.07;4.20;;;6.30;99.90;5.70;99920;;;;594247;238;24031;-82
2023/01/11 11:20:23;;;;;;;6.07;3.83;;;6.30;99.90;5.70;99923;;;;602221;238;24071;-83
2023/01/11 11:22:55;;;;;;;6.67;4.13;;;6.30;99.90;5.70;99905;;;;591932;238;24093;-84
2023/01/11 11:25:21;;;;;;;6.03;4.80;;;6.30;99.90;5.70;99923;;;;594125;238;24057;-84
2023/01/11 11:27:51;;;;;;;6.33;4.60;;;6.20;99.90;5.70;99913;;;;592388;238;24109;-84
2023/01/11 11:30:28;;;;;;;3.20;2.50;;;6.30;99.90;5.70;99909;;;;603516;238;24109;-84
2023/01/11 11:33:05;;;;;;;7.63;4.70;;;6.30;99.90;5.70;99907;;;;591819;238;24057;-83
2023/01/11 11:35:42;;;;;;;6.17;3.87;;;6.30;99.90;5.70;99894;;;;591453;238;24049;-84
2023/01/11 11:38:19;;;;;;;6.77;4.97;;;6.20;99.90;5.70;99893;;;;594577;238;24051;-84
2023/01/11 11:40:46;;;;;;;4.90;3.73;;;6.20;99.90;5.70;99887;;;;593324;238;24038;-83
2023/01/11 11:43:20;;;;;;;6.80;3.37;;;6.20;99.90;5.60;99856;;;;592050;236;24058;-84
2023/01/11 11:45:56;;;;;;;7.10;3.07;;;6.20;99.90;5.60;99874;;;;596213;238;24024;-85
2023/01/11 11:48:25;;;;;;;7.10;4.77;;;6.10;99.90;5.60;99858;;;;595668;238;24037;-83
2023/01/11 11:50:56;;;;;;;5.87;4.50;;;6.10;99.90;5.60;99863;;;;595930;238;24058;-83
2023/01/11 11:53:27;;;;;;;10.57;4.67;;;6.10;99.90;5.50;99855;;;;593353;238;24105;-84
2023/01/11 11:55:55;;;;;;;4.90;3.73;;;6.10;99.90;5.50;99842;;;;595383;238;24037;-83
2023/01/11 11:58:24;;;;;;;11.73;4.73;;;6.10;99.90;5.50;99852;;;;600231;238;24022;-83
2023/01/11 12:00:55;;;;;;;6.00;3.60;;;6.10;99.90;5.50;99848;;;;593283;238;24033;-83
2023/01/11 12:03:28;;;;;;;8.27;3.63;;;6.10;99.90;5.50;99834;;;;594337;238;24073;-84
2023/01/11 12:06:00;;;;;;;7.10;4.67;;;6.10;99.90;5.50;99833;;;;592302;238;24023;-83